sensor_id;sensor_type;location;lat;lon;timestamp;P1;durP1;ratioP1;P2;durP2;ratioP2
2320;SDS011;15376;48.540;9.268;2023-05-21T00:01:49;11.53;;;10.40;;
2320;SDS011;15376;48.540;9.268;2023-05-21T00:04:14;12.20;;;11.10;;
2320;SDS011;15376;48.540;9.268;2023-05-21T00:06:40;11.30;;;10.20;;
2320;SDS011;15376;48.540;9.268;2023-05-21T00:09:05;11.87;;;10.03;;
2320;SDS011;15376;48.540;9.268;2023-05-21T00:11:31;11.10;;;10.00;;
2320;SDS011;15376;48.540;9.268;2023-05-21T00:13:56;12.30;;;11.10;;
2320;SDS011;15376;48.540;9.268;2023-05-21T00:16:22;17.03;;;11.90;;
2320;SDS011;15376;48.540;9.268;2023-05-21T00:18:48;11.57;;;10.47;;
2320;SDS011;15376;48.540;9.268;2023-05-21T00:21:14;12.10;;;10.90;;
2320;SDS011;15376;48.540;9.268;2023-05-21T00:23:41;16.43;;;11.10;;
2320;SDS011;15376;48.540;9.268;2023-05-21T00:26:09;12.30;;;11.00;;
2320;SDS011;15376;48.540;9.268;2023-05-21T00:28:35;12.23;;;10.80;;
2320;SDS011;15376;48.540;9.268;2023-05-21T00:31:00;14.57;;;11.23;;
2320;SDS011;15376;48.540;9.268;2023-05-21T00:33:26;12.20;;;11.00;;
2320;SDS011;15376;48.540;9.268;2023-05-21T00:35:52;11.33;;;10.30;;
2320;SDS011;15376;48.540;9.268;2023-05-21T00:38:18;12.60;;;11.50;;
2320;SDS011;15376;48.540;9.268;2023-05-21T00:40:44;11.77;;;10.73;;
2320;SDS011;15376;48.540;9.268;2023-05-21T00:43:11;12.23;;;11.20;;
2320;SDS011;15376;48.540;9.268;2023-05-21T00:45:39;11.63;;;10.53;;
2320;SDS011;15376;48.540;9.268;2023-05-21T00:48:05;12.90;;;11.67;;
2320;SDS011;15376;48.540;9.268;2023-05-21T00:50:31;13.00;;;11.70;;
2320;SDS011;15376;48.540;9.268;2023-05-21T00:52:57;13.23;;;11.93;;
2320;SDS011;15376;48.540;9.268;2023-05-21T00:55:23;13.53;;;11.80;;
2320;SDS011;15376;48.540;9.268;2023-05-21T00:57:49;13.00;;;11.73;;
2320;SDS011;15376;48.540;9.268;2023-05-21T01:00:15;12.63;;;11.40;;
2320;SDS011;15376;48.540;9.268;2023-05-21T01:02:41;14.17;;;12.67;;
2320;SDS011;15376;48.540;9.268;2023-05-21T01:05:08;13.30;;;11.90;;
2320;SDS011;15376;48.540;9.268;2023-05-21T01:07:35;14.17;;;12.73;;
2320;SDS011;15376;48.540;9.268;2023-05-21T01:10:04;13.67;;;12.27;;
2320;SDS011;15376;48.540;9.268;2023-05-21T01:12:31;12.47;;;11.27;;
2320;SDS011;15376;48.540;9.268;2023-05-21T01:14:58;13.53;;;12.20;;
2320;SDS011;15376;48.540;9.268;2023-05-21T01:17:26;10.90;;;9.87;;
2320;SDS011;15376;48.540;9.268;2023-05-21T01:19:54;12.33;;;11.13;;
2320;SDS011;15376;48.540;9.268;2023-05-21T01:22:21;11.80;;;10.70;;
2320;SDS011;15376;48.540;9.268;2023-05-21T01:24:49;12.03;;;10.83;;
2320;SDS011;15376;48.540;9.268;2023-05-21T01:27:14;11.90;;;10.53;;
2320;SDS011;15376;48.540;9.268;2023-05-21T01:29:40;13.10;;;11.80;;
2320;SDS011;15376;48.540;9.268;2023-05-21T01:37:28;11.80;;;10.60;;
2320;SDS011;15376;48.540;9.268;2023-05-21T01:40:04;13.63;;;10.67;;
2320;SDS011;15376;48.540;9.268;2023-05-21T01:42:35;11.60;;;10.50;;
2320;SDS011;15376;48.540;9.268;2023-05-21T01:45:03;13.70;;;12.30;;
2320;SDS011;15376;48.540;9.268;2023-05-21T01:47:31;11.53;;;10.47;;
2320;SDS011;15376;48.540;9.268;2023-05-21T01:49:58;12.50;;;11.30;;
2320;SDS011;15376;48.540;9.268;2023-05-21T01:52:25;12.33;;;11.13;;
2320;SDS011;15376;48.540;9.268;2023-05-21T01:54:50;12.80;;;11.50;;
2320;SDS011;15376;48.540;9.268;2023-05-21T01:57:18;12.50;;;11.30;;
2320;SDS011;15376;48.540;9.268;2023-05-21T01:59:44;13.00;;;11.70;;
2320;SDS011;15376;48.540;9.268;2023-05-21T02:02:09;13.60;;;12.17;;
2320;SDS011;15376;48.540;9.268;2023-05-21T02:04:34;13.00;;;11.70;;
2320;SDS011;15376;48.540;9.268;2023-05-21T02:07:01;14.50;;;12.37;;
2320;SDS011;15376;48.540;9.268;2023-05-21T02:09:26;14.27;;;12.70;;
2320;SDS011;15376;48.540;9.268;2023-05-21T02:11:52;12.53;;;11.37;;
2320;SDS011;15376;48.540;9.268;2023-05-21T02:14:17;12.60;;;11.40;;
2320;SDS011;15376;48.540;9.268;2023-05-21T02:16:42;13.60;;;12.27;;
2320;SDS011;15376;48.540;9.268;2023-05-21T02:19:08;13.90;;;12.33;;
2320;SDS011;15376;48.540;9.268;2023-05-21T02:21:34;15.97;;;12.77;;
2320;SDS011;15376;48.540;9.268;2023-05-21T02:24:00;12.40;;;11.30;;
2320;SDS011;15376;48.540;9.268;2023-05-21T02:26:25;13.13;;;11.80;;
2320;SDS011;15376;48.540;9.268;2023-05-21T02:28:51;14.37;;;12.97;;
2320;SDS011;15376;48.540;9.268;2023-05-21T02:31:16;16.03;;;14.33;;
2320;SDS011;15376;48.540;9.268;2023-05-21T02:33:42;15.00;;;13.50;;
2320;SDS011;15376;48.540;9.268;2023-05-21T02:36:07;14.97;;;13.57;;
2320;SDS011;15376;48.540;9.268;2023-05-21T02:38:37;17.70;;;15.00;;
2320;SDS011;15376;48.540;9.268;2023-05-21T02:41:08;15.07;;;13.57;;
2320;SDS011;15376;48.540;9.268;2023-05-21T02:43:34;15.17;;;13.37;;
2320;SDS011;15376;48.540;9.268;2023-05-21T02:46:00;15.00;;;13.50;;
2320;SDS011;15376;48.540;9.268;2023-05-21T02:48:25;15.77;;;14.23;;
2320;SDS011;15376;48.540;9.268;2023-05-21T02:50:51;14.40;;;12.90;;
2320;SDS011;15376;48.540;9.268;2023-05-21T02:53:16;20.40;;;15.90;;
2320;SDS011;15376;48.540;9.268;2023-05-21T02:55:41;16.67;;;14.87;;
2320;SDS011;15376;48.540;9.268;2023-05-21T02:58:07;15.43;;;13.90;;
2320;SDS011;15376;48.540;9.268;2023-05-21T03:00:32;16.80;;;14.37;;
2320;SDS011;15376;48.540;9.268;2023-05-21T03:02:57;14.50;;;13.10;;
2320;SDS011;15376;48.540;9.268;2023-05-21T03:05:23;15.03;;;13.47;;
2320;SDS011;15376;48.540;9.268;2023-05-21T03:07:48;15.20;;;13.67;;
2320;SDS011;15376;48.540;9.268;2023-05-21T03:10:14;14.67;;;13.07;;
2320;SDS011;15376;48.540;9.268;2023-05-21T03:12:39;12.63;;;11.10;;
2320;SDS011;15376;48.540;9.268;2023-05-21T03:15:05;15.17;;;13.67;;
2320;SDS011;15376;48.540;9.268;2023-05-21T03:17:30;16.50;;;14.40;;
2320;SDS011;15376;48.540;9.268;2023-05-21T03:19:56;18.63;;;15.53;;
2320;SDS011;15376;48.540;9.268;2023-05-21T03:22:21;14.53;;;12.87;;
2320;SDS011;15376;48.540;9.268;2023-05-21T03:24:46;15.37;;;13.77;;
2320;SDS011;15376;48.540;9.268;2023-05-21T03:27:12;14.57;;;12.97;;
2320;SDS011;15376;48.540;9.268;2023-05-21T03:29:38;15.57;;;13.80;;
2320;SDS011;15376;48.540;9.268;2023-05-21T03:32:04;15.00;;;13.40;;
2320;SDS011;15376;48.540;9.268;2023-05-21T03:34:30;16.10;;;14.50;;
2320;SDS011;15376;48.540;9.268;2023-05-21T03:36:58;19.80;;;14.83;;
2320;SDS011;15376;48.540;9.268;2023-05-21T03:39:24;16.40;;;14.33;;
2320;SDS011;15376;48.540;9.268;2023-05-21T03:41:49;15.60;;;13.77;;
2320;SDS011;15376;48.540;9.268;2023-05-21T03:44:15;15.53;;;14.03;;
2320;SDS011;15376;48.540;9.268;2023-05-21T03:46:40;14.90;;;13.47;;
2320;SDS011;15376;48.540;9.268;2023-05-21T03:49:06;18.43;;;14.83;;
2320;SDS011;15376;48.540;9.268;2023-05-21T03:51:31;15.97;;;13.70;;
2320;SDS011;15376;48.540;9.268;2023-05-21T03:53:57;16.73;;;15.03;;
2320;SDS011;15376;48.540;9.268;2023-05-21T03:56:23;15.73;;;14.27;;
2320;SDS011;15376;48.540;9.268;2023-05-21T03:58:48;19.77;;;17.00;;
2320;SDS011;15376;48.540;9.268;2023-05-21T04:01:14;18.33;;;16.37;;
2320;SDS011;15376;48.540;9.268;2023-05-21T04:03:39;16.63;;;15.03;;
2320;SDS011;15376;48.540;9.268;2023-05-21T04:06:06;16.03;;;14.43;;
2320;SDS011;15376;48.540;9.268;2023-05-21T04:08:34;16.80;;;15.10;;
2320;SDS011;15376;48.540;9.268;2023-05-21T04:11:00;16.40;;;14.77;;
2320;SDS011;15376;48.540;9.268;2023-05-21T04:13:26;19.70;;;15.90;;
2320;SDS011;15376;48.540;9.268;2023-05-21T04:15:52;16.90;;;15.27;;
2320;SDS011;15376;48.540;9.268;2023-05-21T04:18:18;16.93;;;15.13;;
2320;SDS011;15376;48.540;9.268;2023-05-21T04:20:44;16.47;;;14.90;;
2320;SDS011;15376;48.540;9.268;2023-05-21T04:23:10;14.67;;;13.30;;
2320;SDS011;15376;48.540;9.268;2023-05-21T04:25:35;15.50;;;13.47;;
2320;SDS011;15376;48.540;9.268;2023-05-21T04:28:02;13.83;;;12.47;;
2320;SDS011;15376;48.540;9.268;2023-05-21T04:30:28;14.90;;;13.40;;
2320;SDS011;15376;48.540;9.268;2023-05-21T04:32:53;14.20;;;12.90;;
2320;SDS011;15376;48.540;9.268;2023-05-21T04:35:19;15.40;;;13.40;;
2320;SDS011;15376;48.540;9.268;2023-05-21T04:37:44;15.67;;;13.60;;
2320;SDS011;15376;48.540;9.268;2023-05-21T04:40:13;18.90;;;15.23;;
2320;SDS011;15376;48.540;9.268;2023-05-21T04:42:45;17.37;;;14.43;;
2320;SDS011;15376;48.540;9.268;2023-05-21T04:45:14;17.60;;;15.80;;
2320;SDS011;15376;48.540;9.268;2023-05-21T04:47:41;16.17;;;14.43;;
2320;SDS011;15376;48.540;9.268;2023-05-21T04:50:07;15.60;;;14.10;;
2320;SDS011;15376;48.540;9.268;2023-05-21T04:52:32;16.23;;;14.60;;
2320;SDS011;15376;48.540;9.268;2023-05-21T04:54:58;14.93;;;13.33;;
2320;SDS011;15376;48.540;9.268;2023-05-21T04:57:25;15.80;;;14.20;;
2320;SDS011;15376;48.540;9.268;2023-05-21T04:59:52;14.97;;;13.03;;
2320;SDS011;15376;48.540;9.268;2023-05-21T05:02:17;16.87;;;15.17;;
2320;SDS011;15376;48.540;9.268;2023-05-21T05:04:43;16.93;;;15.23;;
2320;SDS011;15376;48.540;9.268;2023-05-21T05:07:08;17.87;;;14.87;;
2320;SDS011;15376;48.540;9.268;2023-05-21T05:09:34;15.63;;;13.47;;
2320;SDS011;15376;48.540;9.268;2023-05-21T05:11:59;17.20;;;15.40;;
2320;SDS011;15376;48.540;9.268;2023-05-21T05:14:25;16.13;;;14.43;;
2320;SDS011;15376;48.540;9.268;2023-05-21T05:16:50;14.10;;;12.67;;
2320;SDS011;15376;48.540;9.268;2023-05-21T05:19:16;14.40;;;13.10;;
2320;SDS011;15376;48.540;9.268;2023-05-21T05:21:41;14.03;;;12.77;;
2320;SDS011;15376;48.540;9.268;2023-05-21T05:24:06;15.73;;;12.90;;
2320;SDS011;15376;48.540;9.268;2023-05-21T05:26:32;15.13;;;13.63;;
2320;SDS011;15376;48.540;9.268;2023-05-21T05:28:57;15.33;;;13.83;;
2320;SDS011;15376;48.540;9.268;2023-05-21T05:31:22;15.00;;;13.30;;
2320;SDS011;15376;48.540;9.268;2023-05-21T05:33:48;15.13;;;13.83;;
2320;SDS011;15376;48.540;9.268;2023-05-21T05:36:13;14.63;;;13.17;;
2320;SDS011;15376;48.540;9.268;2023-05-21T05:38:39;15.87;;;14.27;;
2320;SDS011;15376;48.540;9.268;2023-05-21T05:41:04;14.93;;;13.43;;
2320;SDS011;15376;48.540;9.268;2023-05-21T05:43:29;14.60;;;13.20;;
2320;SDS011;15376;48.540;9.268;2023-05-21T05:45:55;12.87;;;11.57;;
2320;SDS011;15376;48.540;9.268;2023-05-21T05:48:20;13.97;;;12.67;;
2320;SDS011;15376;48.540;9.268;2023-05-21T05:50:46;15.37;;;13.90;;
2320;SDS011;15376;48.540;9.268;2023-05-21T05:53:12;14.07;;;12.77;;
2320;SDS011;15376;48.540;9.268;2023-05-21T05:55:38;15.47;;;13.97;;
2320;SDS011;15376;48.540;9.268;2023-05-21T05:58:04;15.30;;;13.80;;
2320;SDS011;15376;48.540;9.268;2023-05-21T06:00:30;16.10;;;14.60;;
2320;SDS011;15376;48.540;9.268;2023-05-21T06:02:55;16.63;;;14.80;;
2320;SDS011;15376;48.540;9.268;2023-05-21T06:05:21;14.80;;;13.50;;
2320;SDS011;15376;48.540;9.268;2023-05-21T06:07:46;15.23;;;13.73;;
2320;SDS011;15376;48.540;9.268;2023-05-21T06:10:11;14.43;;;12.93;;
2320;SDS011;15376;48.540;9.268;2023-05-21T06:12:37;15.33;;;13.83;;
2320;SDS011;15376;48.540;9.268;2023-05-21T06:15:03;16.33;;;14.73;;
2320;SDS011;15376;48.540;9.268;2023-05-21T06:17:29;17.17;;;14.20;;
2320;SDS011;15376;48.540;9.268;2023-05-21T06:19:55;14.20;;;12.80;;
2320;SDS011;15376;48.540;9.268;2023-05-21T06:22:20;17.03;;;15.17;;
2320;SDS011;15376;48.540;9.268;2023-05-21T06:24:46;15.87;;;14.50;;
2320;SDS011;15376;48.540;9.268;2023-05-21T06:27:11;15.70;;;14.30;;
2320;SDS011;15376;48.540;9.268;2023-05-21T06:29:37;15.83;;;14.23;;
2320;SDS011;15376;48.540;9.268;2023-05-21T06:32:04;23.63;;;15.27;;
2320;SDS011;15376;48.540;9.268;2023-05-21T06:34:30;16.00;;;14.40;;
2320;SDS011;15376;48.540;9.268;2023-05-21T06:36:56;16.93;;;14.40;;
2320;SDS011;15376;48.540;9.268;2023-05-21T06:39:21;15.40;;;13.77;;
2320;SDS011;15376;48.540;9.268;2023-05-21T06:41:48;18.53;;;16.67;;
2320;SDS011;15376;48.540;9.268;2023-05-21T06:44:13;19.43;;;15.37;;
2320;SDS011;15376;48.540;9.268;2023-05-21T06:46:40;18.10;;;15.13;;
2320;SDS011;15376;48.540;9.268;2023-05-21T06:49:06;15.80;;;14.43;;
2320;SDS011;15376;48.540;9.268;2023-05-21T06:51:32;18.63;;;16.57;;
2320;SDS011;15376;48.540;9.268;2023-05-21T06:53:57;18.73;;;16.83;;
2320;SDS011;15376;48.540;9.268;2023-05-21T06:56:23;17.80;;;15.97;;
2320;SDS011;15376;48.540;9.268;2023-05-21T06:58:48;17.60;;;15.90;;
2320;SDS011;15376;48.540;9.268;2023-05-21T07:01:14;18.23;;;16.63;;
2320;SDS011;15376;48.540;9.268;2023-05-21T07:03:40;18.97;;;17.03;;
2320;SDS011;15376;48.540;9.268;2023-05-21T07:06:05;17.63;;;16.03;;
2320;SDS011;15376;48.540;9.268;2023-05-21T07:08:31;18.10;;;16.40;;
2320;SDS011;15376;48.540;9.268;2023-05-21T07:10:56;16.93;;;15.33;;
2320;SDS011;15376;48.540;9.268;2023-05-21T07:13:21;18.03;;;16.13;;
2320;SDS011;15376;48.540;9.268;2023-05-21T07:15:47;19.73;;;17.67;;
2320;SDS011;15376;48.540;9.268;2023-05-21T07:18:12;17.93;;;16.17;;
2320;SDS011;15376;48.540;9.268;2023-05-21T07:20:37;17.63;;;15.93;;
2320;SDS011;15376;48.540;9.268;2023-05-21T07:23:03;17.60;;;15.77;;
2320;SDS011;15376;48.540;9.268;2023-05-21T07:25:28;18.33;;;16.53;;
2320;SDS011;15376;48.540;9.268;2023-05-21T07:27:54;17.17;;;15.57;;
2320;SDS011;15376;48.540;9.268;2023-05-21T07:30:19;15.90;;;14.40;;
2320;SDS011;15376;48.540;9.268;2023-05-21T07:32:45;17.30;;;15.70;;
2320;SDS011;15376;48.540;9.268;2023-05-21T07:35:10;16.80;;;15.20;;
2320;SDS011;15376;48.540;9.268;2023-05-21T07:37:35;17.67;;;16.07;;
2320;SDS011;15376;48.540;9.268;2023-05-21T07:40:01;23.20;;;21.00;;
2320;SDS011;15376;48.540;9.268;2023-05-21T07:42:26;21.97;;;19.60;;
2320;SDS011;15376;48.540;9.268;2023-05-21T07:44:51;18.90;;;16.90;;
2320;SDS011;15376;48.540;9.268;2023-05-21T07:47:17;20.63;;;17.63;;
2320;SDS011;15376;48.540;9.268;2023-05-21T07:49:42;16.20;;;14.67;;
2320;SDS011;15376;48.540;9.268;2023-05-21T07:52:08;17.13;;;15.50;;
2320;SDS011;15376;48.540;9.268;2023-05-21T07:54:33;20.40;;;17.00;;
2320;SDS011;15376;48.540;9.268;2023-05-21T07:56:59;18.30;;;16.60;;
2320;SDS011;15376;48.540;9.268;2023-05-21T07:59:26;18.30;;;16.57;;
2320;SDS011;15376;48.540;9.268;2023-05-21T08:01:52;23.93;;;21.47;;
2320;SDS011;15376;48.540;9.268;2023-05-21T08:04:17;17.33;;;15.13;;
2320;SDS011;15376;48.540;9.268;2023-05-21T08:06:43;17.90;;;16.30;;
2320;SDS011;15376;48.540;9.268;2023-05-21T08:09:08;18.77;;;17.00;;
2320;SDS011;15376;48.540;9.268;2023-05-21T08:11:33;19.07;;;17.27;;
2320;SDS011;15376;48.540;9.268;2023-05-21T08:13:59;19.07;;;17.20;;
2320;SDS011;15376;48.540;9.268;2023-05-21T08:16:24;17.17;;;15.40;;
2320;SDS011;15376;48.540;9.268;2023-05-21T08:18:50;18.47;;;16.77;;
2320;SDS011;15376;48.540;9.268;2023-05-21T08:21:15;19.70;;;15.67;;
2320;SDS011;15376;48.540;9.268;2023-05-21T08:23:41;21.47;;;15.63;;
2320;SDS011;15376;48.540;9.268;2023-05-21T08:26:07;17.47;;;15.60;;
2320;SDS011;15376;48.540;9.268;2023-05-21T08:28:32;19.00;;;16.50;;
2320;SDS011;15376;48.540;9.268;2023-05-21T08:30:59;17.77;;;15.90;;
2320;SDS011;15376;48.540;9.268;2023-05-21T08:33:25;18.57;;;16.57;;
2320;SDS011;15376;48.540;9.268;2023-05-21T08:35:51;17.10;;;15.50;;
2320;SDS011;15376;48.540;9.268;2023-05-21T08:38:16;17.67;;;15.87;;
2320;SDS011;15376;48.540;9.268;2023-05-21T08:40:42;17.50;;;15.90;;
2320;SDS011;15376;48.540;9.268;2023-05-21T08:43:07;17.50;;;16.00;;
2320;SDS011;15376;48.540;9.268;2023-05-21T08:45:37;17.93;;;16.23;;
2320;SDS011;15376;48.540;9.268;2023-05-21T08:48:07;16.10;;;14.70;;
2320;SDS011;15376;48.540;9.268;2023-05-21T08:50:35;16.53;;;14.80;;
2320;SDS011;15376;48.540;9.268;2023-05-21T08:53:00;17.60;;;16.00;;
2320;SDS011;15376;48.540;9.268;2023-05-21T08:55:26;17.20;;;15.60;;
2320;SDS011;15376;48.540;9.268;2023-05-21T08:57:52;17.87;;;16.17;;
2320;SDS011;15376;48.540;9.268;2023-05-21T09:00:18;17.60;;;16.00;;
2320;SDS011;15376;48.540;9.268;2023-05-21T09:02:48;22.27;;;20.03;;
2320;SDS011;15376;48.540;9.268;2023-05-21T09:05:15;15.33;;;13.83;;
2320;SDS011;15376;48.540;9.268;2023-05-21T09:07:53;17.70;;;16.00;;
2320;SDS011;15376;48.540;9.268;2023-05-21T09:10:25;14.70;;;13.40;;
2320;SDS011;15376;48.540;9.268;2023-05-21T09:12:58;19.13;;;17.27;;
2320;SDS011;15376;48.540;9.268;2023-05-21T09:15:23;16.40;;;14.90;;
2320;SDS011;15376;48.540;9.268;2023-05-21T09:17:49;17.80;;;16.10;;
2320;SDS011;15376;48.540;9.268;2023-05-21T09:20:14;17.23;;;15.53;;
2320;SDS011;15376;48.540;9.268;2023-05-21T09:22:44;16.70;;;15.00;;
2320;SDS011;15376;48.540;9.268;2023-05-21T09:25:19;15.00;;;13.50;;
2320;SDS011;15376;48.540;9.268;2023-05-21T09:27:48;15.93;;;14.37;;
2320;SDS011;15376;48.540;9.268;2023-05-21T09:30:14;15.07;;;13.70;;
2320;SDS011;15376;48.540;9.268;2023-05-21T09:32:41;16.33;;;14.63;;
2320;SDS011;15376;48.540;9.268;2023-05-21T09:35:09;16.07;;;14.67;;
2320;SDS011;15376;48.540;9.268;2023-05-21T09:37:57;13.73;;;12.47;;
2320;SDS011;15376;48.540;9.268;2023-05-21T09:40:22;15.90;;;14.50;;
2320;SDS011;15376;48.540;9.268;2023-05-21T09:42:48;15.73;;;14.43;;
2320;SDS011;15376;48.540;9.268;2023-05-21T09:45:18;14.37;;;13.17;;
2320;SDS011;15376;48.540;9.268;2023-05-21T09:47:44;16.17;;;14.50;;
2320;SDS011;15376;48.540;9.268;2023-05-21T09:50:10;16.00;;;14.40;;
2320;SDS011;15376;48.540;9.268;2023-05-21T09:52:46;15.40;;;14.00;;
2320;SDS011;15376;48.540;9.268;2023-05-21T09:55:14;15.07;;;13.67;;
2320;SDS011;15376;48.540;9.268;2023-05-21T10:00:19;14.70;;;13.37;;
2320;SDS011;15376;48.540;9.268;2023-05-21T10:02:54;14.53;;;12.90;;
2320;SDS011;15376;48.540;9.268;2023-05-21T10:05:22;15.60;;;14.00;;
2320;SDS011;15376;48.540;9.268;2023-05-21T10:07:52;15.30;;;14.00;;
2320;SDS011;15376;48.540;9.268;2023-05-21T10:10:23;15.10;;;13.70;;
2320;SDS011;15376;48.540;9.268;2023-05-21T10:12:53;15.47;;;13.97;;
2320;SDS011;15376;48.540;9.268;2023-05-21T10:15:23;15.70;;;14.30;;
2320;SDS011;15376;48.540;9.268;2023-05-21T10:17:51;15.23;;;13.80;;
2320;SDS011;15376;48.540;9.268;2023-05-21T10:20:19;14.20;;;12.80;;
2320;SDS011;15376;48.540;9.268;2023-05-21T10:22:46;15.07;;;13.47;;
2320;SDS011;15376;48.540;9.268;2023-05-21T10:25:11;16.93;;;15.43;;
2320;SDS011;15376;48.540;9.268;2023-05-21T10:27:37;16.53;;;15.03;;
2320;SDS011;15376;48.540;9.268;2023-05-21T10:30:06;15.57;;;14.03;;
2320;SDS011;15376;48.540;9.268;2023-05-21T10:32:32;14.80;;;13.40;;
2320;SDS011;15376;48.540;9.268;2023-05-21T10:34:59;13.77;;;12.37;;
2320;SDS011;15376;48.540;9.268;2023-05-21T10:37:26;13.43;;;12.33;;
2320;SDS011;15376;48.540;9.268;2023-05-21T10:39:52;13.20;;;12.10;;
2320;SDS011;15376;48.540;9.268;2023-05-21T10:55:42;12.27;;;11.30;;
2320;SDS011;15376;48.540;9.268;2023-05-21T11:01:33;12.10;;;11.10;;
2320;SDS011;15376;48.540;9.268;2023-05-21T11:04:04;11.70;;;10.80;;
2320;SDS011;15376;48.540;9.268;2023-05-21T11:06:30;12.53;;;11.30;;
2320;SDS011;15376;48.540;9.268;2023-05-21T11:08:59;12.63;;;11.37;;
2320;SDS011;15376;48.540;9.268;2023-05-21T11:16:51;11.70;;;10.80;;
2320;SDS011;15376;48.540;9.268;2023-05-21T11:19:17;11.90;;;10.80;;
2320;SDS011;15376;48.540;9.268;2023-05-21T11:21:42;12.40;;;11.40;;
2320;SDS011;15376;48.540;9.268;2023-05-21T11:24:17;11.07;;;10.17;;
2320;SDS011;15376;48.540;9.268;2023-05-21T11:29:14;11.90;;;10.90;;
2320;SDS011;15376;48.540;9.268;2023-05-21T11:31:47;11.73;;;10.73;;
2320;SDS011;15376;48.540;9.268;2023-05-21T11:34:23;10.70;;;9.77;;
2320;SDS011;15376;48.540;9.268;2023-05-21T11:39:51;11.90;;;10.80;;
2320;SDS011;15376;48.540;9.268;2023-05-21T11:42:30;12.00;;;10.70;;
2320;SDS011;15376;48.540;9.268;2023-05-21T11:45:02;11.10;;;10.17;;
2320;SDS011;15376;48.540;9.268;2023-05-21T11:47:29;14.37;;;12.90;;
2320;SDS011;15376;48.540;9.268;2023-05-21T11:49:56;10.50;;;9.50;;
2320;SDS011;15376;48.540;9.268;2023-05-21T11:52:27;10.30;;;9.47;;
2320;SDS011;15376;48.540;9.268;2023-05-21T11:54:55;10.30;;;9.30;;
2320;SDS011;15376;48.540;9.268;2023-05-21T11:57:23;12.17;;;11.10;;
2320;SDS011;15376;48.540;9.268;2023-05-21T11:59:52;10.60;;;9.70;;
2320;SDS011;15376;48.540;9.268;2023-05-21T12:02:18;10.43;;;9.50;;
2320;SDS011;15376;48.540;9.268;2023-05-21T12:04:45;9.90;;;9.10;;
2320;SDS011;15376;48.540;9.268;2023-05-21T12:07:13;10.83;;;9.93;;
2320;SDS011;15376;48.540;9.268;2023-05-21T12:09:46;11.20;;;10.20;;
2320;SDS011;15376;48.540;9.268;2023-05-21T12:12:14;10.20;;;9.30;;
2320;SDS011;15376;48.540;9.268;2023-05-21T12:14:43;10.10;;;9.20;;
2320;SDS011;15376;48.540;9.268;2023-05-21T12:17:10;9.43;;;8.70;;
2320;SDS011;15376;48.540;9.268;2023-05-21T12:19:37;9.27;;;8.43;;
2320;SDS011;15376;48.540;9.268;2023-05-21T12:22:04;9.80;;;8.90;;
2320;SDS011;15376;48.540;9.268;2023-05-21T12:24:30;10.17;;;9.23;;
2320;SDS011;15376;48.540;9.268;2023-05-21T12:26:56;9.43;;;8.53;;
2320;SDS011;15376;48.540;9.268;2023-05-21T12:29:29;10.17;;;9.37;;
2320;SDS011;15376;48.540;9.268;2023-05-21T12:31:59;10.60;;;9.53;;
2320;SDS011;15376;48.540;9.268;2023-05-21T12:34:38;10.50;;;9.60;;
2320;SDS011;15376;48.540;9.268;2023-05-21T12:37:10;10.60;;;9.67;;
2320;SDS011;15376;48.540;9.268;2023-05-21T12:39:46;9.80;;;9.00;;
2320;SDS011;15376;48.540;9.268;2023-05-21T12:42:14;9.90;;;9.10;;
2320;SDS011;15376;48.540;9.268;2023-05-21T12:44:43;8.73;;;8.07;;
2320;SDS011;15376;48.540;9.268;2023-05-21T12:47:10;9.90;;;9.00;;
2320;SDS011;15376;48.540;9.268;2023-05-21T12:49:38;9.60;;;8.80;;
2320;SDS011;15376;48.540;9.268;2023-05-21T12:52:12;9.30;;;8.50;;
2320;SDS011;15376;48.540;9.268;2023-05-21T12:54:39;10.23;;;9.27;;
2320;SDS011;15376;48.540;9.268;2023-05-21T12:57:10;9.60;;;8.73;;
2320;SDS011;15376;48.540;9.268;2023-05-21T12:59:58;9.87;;;8.97;;
2320;SDS011;15376;48.540;9.268;2023-05-21T13:02:28;10.00;;;9.00;;
2320;SDS011;15376;48.540;9.268;2023-05-21T13:04:56;9.20;;;8.40;;
2320;SDS011;15376;48.540;9.268;2023-05-21T13:07:26;10.33;;;9.07;;
2320;SDS011;15376;48.540;9.268;2023-05-21T13:09:53;10.80;;;9.00;;
2320;SDS011;15376;48.540;9.268;2023-05-21T13:12:20;8.90;;;8.10;;
2320;SDS011;15376;48.540;9.268;2023-05-21T13:14:46;9.70;;;8.90;;
2320;SDS011;15376;48.540;9.268;2023-05-21T13:17:12;9.37;;;8.57;;
2320;SDS011;15376;48.540;9.268;2023-05-21T13:19:38;9.40;;;8.60;;
2320;SDS011;15376;48.540;9.268;2023-05-21T13:22:04;9.07;;;8.33;;
2320;SDS011;15376;48.540;9.268;2023-05-21T13:24:31;8.90;;;8.10;;
2320;SDS011;15376;48.540;9.268;2023-05-21T13:26:56;10.37;;;9.27;;
2320;SDS011;15376;48.540;9.268;2023-05-21T13:29:21;9.50;;;8.70;;
2320;SDS011;15376;48.540;9.268;2023-05-21T13:31:47;9.77;;;8.77;;
2320;SDS011;15376;48.540;9.268;2023-05-21T13:34:12;9.53;;;8.73;;
2320;SDS011;15376;48.540;9.268;2023-05-21T13:36:38;11.13;;;8.83;;
2320;SDS011;15376;48.540;9.268;2023-05-21T13:39:04;8.50;;;7.60;;
2320;SDS011;15376;48.540;9.268;2023-05-21T13:41:30;8.37;;;7.67;;
2320;SDS011;15376;48.540;9.268;2023-05-21T13:43:55;8.53;;;7.73;;
2320;SDS011;15376;48.540;9.268;2023-05-21T13:46:21;8.97;;;8.17;;
2320;SDS011;15376;48.540;9.268;2023-05-21T13:48:47;8.87;;;8.13;;
2320;SDS011;15376;48.540;9.268;2023-05-21T13:51:12;9.40;;;8.60;;
2320;SDS011;15376;48.540;9.268;2023-05-21T13:53:38;10.60;;;8.07;;
2320;SDS011;15376;48.540;9.268;2023-05-21T13:56:03;8.80;;;8.10;;
2320;SDS011;15376;48.540;9.268;2023-05-21T13:58:29;8.20;;;7.50;;
2320;SDS011;15376;48.540;9.268;2023-05-21T14:00:59;9.07;;;8.17;;
2320;SDS011;15376;48.540;9.268;2023-05-21T14:03:25;7.80;;;7.10;;
2320;SDS011;15376;48.540;9.268;2023-05-21T14:05:51;8.67;;;7.97;;
2320;SDS011;15376;48.540;9.268;2023-05-21T14:08:18;8.10;;;7.40;;
2320;SDS011;15376;48.540;9.268;2023-05-21T14:10:45;8.30;;;7.60;;
2320;SDS011;15376;48.540;9.268;2023-05-21T14:13:11;9.10;;;8.30;;
2320;SDS011;15376;48.540;9.268;2023-05-21T14:15:37;8.57;;;7.87;;
2320;SDS011;15376;48.540;9.268;2023-05-21T14:18:02;8.10;;;7.40;;
2320;SDS011;15376;48.540;9.268;2023-05-21T14:20:31;8.23;;;7.30;;
2320;SDS011;15376;48.540;9.268;2023-05-21T14:22:57;8.70;;;7.87;;
2320;SDS011;15376;48.540;9.268;2023-05-21T14:25:23;8.60;;;7.80;;
2320;SDS011;15376;48.540;9.268;2023-05-21T14:27:48;8.00;;;7.17;;
2320;SDS011;15376;48.540;9.268;2023-05-21T14:30:13;8.30;;;7.50;;
2320;SDS011;15376;48.540;9.268;2023-05-21T14:32:39;8.17;;;7.43;;
2320;SDS011;15376;48.540;9.268;2023-05-21T14:35:04;7.30;;;6.77;;
2320;SDS011;15376;48.540;9.268;2023-05-21T14:37:30;8.30;;;7.60;;
2320;SDS011;15376;48.540;9.268;2023-05-21T14:39:55;7.23;;;6.53;;
2320;SDS011;15376;48.540;9.268;2023-05-21T14:42:20;8.03;;;7.10;;
2320;SDS011;15376;48.540;9.268;2023-05-21T14:44:46;7.90;;;7.30;;
2320;SDS011;15376;48.540;9.268;2023-05-21T14:47:11;8.30;;;7.60;;
2320;SDS011;15376;48.540;9.268;2023-05-21T14:49:36;8.37;;;7.67;;
2320;SDS011;15376;48.540;9.268;2023-05-21T14:52:02;8.73;;;7.93;;
2320;SDS011;15376;48.540;9.268;2023-05-21T14:54:27;8.00;;;7.20;;
2320;SDS011;15376;48.540;9.268;2023-05-21T14:56:52;9.07;;;7.83;;
2320;SDS011;15376;48.540;9.268;2023-05-21T14:59:18;8.13;;;7.50;;
2320;SDS011;15376;48.540;9.268;2023-05-21T15:01:43;9.47;;;8.53;;
2320;SDS011;15376;48.540;9.268;2023-05-21T15:04:09;8.03;;;7.40;;
2320;SDS011;15376;48.540;9.268;2023-05-21T15:06:34;8.93;;;8.03;;
2320;SDS011;15376;48.540;9.268;2023-05-21T15:09:00;7.30;;;6.67;;
2320;SDS011;15376;48.540;9.268;2023-05-21T15:11:25;12.83;;;8.60;;
2320;SDS011;15376;48.540;9.268;2023-05-21T15:13:51;8.30;;;7.57;;